createdAt,value
2023-04-25T00:01:47.935Z,17.03
2023-04-25T00:04:14.890Z,17.02
2023-04-25T00:06:47.686Z,16.94
2023-04-25T00:09:14.516Z,17.03
2023-04-25T00:11:41.742Z,17.02
2023-04-25T00:14:08.977Z,17.02
2023-04-25T00:16:36.796Z,16.83
2023-04-25T00:19:04.044Z,17.04
2023-04-25T00:21:32.626Z,17.06
2023-04-25T00:23:59.649Z,17.05
2023-04-25T00:26:26.497Z,17.08
2023-04-25T00:28:53.246Z,16.72
2023-04-25T00:31:20.205Z,17.09
2023-04-25T00:33:46.966Z,17.12
2023-04-25T00:36:13.804Z,17.05
2023-04-25T00:38:41.248Z,17.08
2023-04-25T00:41:08.605Z,17.02
2023-04-25T00:43:35.406Z,16.94
2023-04-25T00:46:02.292Z,16.96
2023-04-25T00:48:29.069Z,17.11
2023-04-25T00:50:58.560Z,17.09
2023-04-25T00:53:26.582Z,17.07
2023-04-25T00:55:53.502Z,17.03
2023-04-25T00:58:23.283Z,16.82
2023-04-25T01:00:51.441Z,17.00
2023-04-25T01:03:18.503Z,16.99
2023-04-25T01:05:45.421Z,16.97
2023-04-25T01:08:12.394Z,16.96
2023-04-25T01:10:39.112Z,16.96
2023-04-25T01:13:06.037Z,16.96
2023-04-25T01:15:33.023Z,16.97
2023-04-25T01:18:02.097Z,16.91
2023-04-25T01:20:29.563Z,17.02
2023-04-25T01:22:56.588Z,16.86
2023-04-25T01:25:23.814Z,17.03
2023-04-25T01:27:50.626Z,17.08
2023-04-25T01:30:17.621Z,16.94
2023-04-25T01:32:44.590Z,16.87
2023-04-25T01:35:12.284Z,17.08
2023-04-25T01:37:42.737Z,17.01
2023-04-25T01:40:10.843Z,17.14
2023-04-25T01:42:42.758Z,17.15
2023-04-25T01:45:10.279Z,17.04
2023-04-25T01:47:37.174Z,16.90
2023-04-25T01:50:05.404Z,17.20
2023-04-25T01:52:32.153Z,17.16
2023-04-25T01:54:59.226Z,17.20
2023-04-25T01:57:26.166Z,17.20
2023-04-25T01:59:53.137Z,17.19
2023-04-25T02:02:19.942Z,17.20
2023-04-25T02:04:47.037Z,17.13
2023-04-25T02:07:13.845Z,17.24
2023-04-25T02:09:40.584Z,17.26
2023-04-25T02:12:10.358Z,17.14
2023-04-25T02:14:37.133Z,17.27
2023-04-25T02:17:03.994Z,17.28
2023-04-25T02:19:30.974Z,17.31
2023-04-25T02:21:58.196Z,17.30
2023-04-25T02:24:24.920Z,17.15
2023-04-25T02:26:51.923Z,17.32
2023-04-25T02:29:18.837Z,17.33
2023-04-25T02:31:45.738Z,16.81
2023-04-25T02:34:12.649Z,17.20
2023-04-25T02:36:39.382Z,17.26
2023-04-25T02:39:06.172Z,17.23
2023-04-25T02:41:33.156Z,17.37
2023-04-25T02:43:59.874Z,17.37
2023-04-25T02:46:38.361Z,17.20
2023-04-25T02:49:06.395Z,17.26
2023-04-25T02:51:33.751Z,17.16
2023-04-25T02:54:00.500Z,17.34
2023-04-25T02:56:28.032Z,17.33
2023-04-25T02:59:03.301Z,17.32
2023-04-25T03:01:30.186Z,17.32
2023-04-25T03:03:57.052Z,17.24
2023-04-25T03:06:23.861Z,17.33
2023-04-25T03:08:50.683Z,17.32
2023-04-25T03:11:17.478Z,17.32
2023-04-25T03:13:44.326Z,17.29
2023-04-25T03:16:11.274Z,17.34
2023-04-25T03:18:38.124Z,17.26
2023-04-25T03:21:04.847Z,17.31
2023-04-25T03:23:36.916Z,17.19
2023-04-25T03:26:03.795Z,17.38
2023-04-25T03:28:30.588Z,17.38
2023-04-25T03:31:00.203Z,17.12
2023-04-25T03:33:26.948Z,17.39
2023-04-25T03:35:54.140Z,17.20
2023-04-25T03:38:20.965Z,17.35
2023-04-25T03:40:47.856Z,17.32
2023-04-25T03:43:14.627Z,16.82
2023-04-25T03:45:44.115Z,17.26
2023-04-25T03:48:10.983Z,17.24
2023-04-25T03:50:37.706Z,17.20
2023-04-25T03:53:04.465Z,17.17
2023-04-25T03:55:32.201Z,17.12
2023-04-25T03:57:59.364Z,17.12
2023-04-25T04:00:26.593Z,17.12
2023-04-25T04:02:53.498Z,17.12
2023-04-25T04:05:20.466Z,17.09
2023-04-25T04:07:47.229Z,17.01
2023-04-25T04:10:14.181Z,17.11
2023-04-25T04:12:40.994Z,16.95
2023-04-25T04:15:08.366Z,17.09
2023-04-25T04:17:35.577Z,17.04
2023-04-25T04:20:02.376Z,17.06
2023-04-25T04:22:29.086Z,17.06
2023-04-25T04:24:55.925Z,16.83
2023-04-25T04:27:22.789Z,17.04
2023-04-25T04:29:49.678Z,17.06
2023-04-25T04:32:16.661Z,16.82
2023-04-25T04:34:43.459Z,17.09
2023-04-25T04:37:11.505Z,17.01
2023-04-25T04:39:39.004Z,17.14
2023-04-25T04:42:06.200Z,17.07
2023-04-25T04:44:36.499Z,17.16
2023-04-25T04:47:07.446Z,17.17
2023-04-25T04:49:34.613Z,17.10
2023-04-25T04:52:01.952Z,17.16
2023-04-25T04:54:28.845Z,17.16
2023-04-25T04:56:55.886Z,17.15
2023-04-25T04:59:22.803Z,17.01
2023-04-25T05:01:49.542Z,16.94
2023-04-25T05:04:16.405Z,16.98
2023-04-25T05:06:43.459Z,17.06
2023-04-25T05:09:10.261Z,17.07
2023-04-25T05:11:37.017Z,16.93
2023-04-25T05:14:04.419Z,16.86
2023-04-25T05:16:31.253Z,16.93
2023-04-25T05:19:00.956Z,16.96
2023-04-25T05:21:28.612Z,16.94
2023-04-25T05:23:55.779Z,16.93
2023-04-25T05:26:22.543Z,16.87
2023-04-25T05:28:49.521Z,16.83
2023-04-25T05:31:16.448Z,16.90
2023-04-25T05:33:43.238Z,16.81
2023-04-25T05:36:10.245Z,16.86
2023-04-25T05:38:37.102Z,16.88
2023-04-25T05:41:03.993Z,16.83
2023-04-25T05:43:30.913Z,16.85
2023-04-25T05:45:57.682Z,16.68
2023-04-25T05:48:24.495Z,16.66
2023-04-25T05:50:52.762Z,16.79
2023-04-25T05:53:20.677Z,16.79
2023-04-25T05:55:47.900Z,16.76
2023-04-25T05:58:14.741Z,16.77
2023-04-25T06:00:42.752Z,16.70
2023-04-25T06:03:11.039Z,16.62
2023-04-25T06:05:38.199Z,16.75
2023-04-25T06:08:05.224Z,16.75
2023-04-25T06:10:32.022Z,16.76
2023-04-25T06:12:58.912Z,16.75
2023-04-25T06:15:28.409Z,16.75
2023-04-25T06:17:55.897Z,16.71
2023-04-25T06:20:25.233Z,16.44
2023-04-25T06:22:55.308Z,16.61
2023-04-25T06:25:22.416Z,16.58
2023-04-25T06:27:49.287Z,16.54
2023-04-25T06:30:17.504Z,16.49
2023-04-25T06:32:44.367Z,16.43
2023-04-25T06:35:11.553Z,16.44
2023-04-25T06:37:38.471Z,16.29
2023-04-25T06:40:06.002Z,16.34
2023-04-25T06:42:32.958Z,16.33
2023-04-25T06:44:59.777Z,16.35
2023-04-25T06:47:26.803Z,16.21
2023-04-25T06:49:53.783Z,16.35
2023-04-25T06:52:20.516Z,16.32
2023-04-25T06:54:47.423Z,16.26
2023-04-25T06:57:14.440Z,16.30
2023-04-25T06:59:41.363Z,16.29
2023-04-25T07:02:08.577Z,16.33
2023-04-25T07:04:36.161Z,16.22
2023-04-25T07:07:04.554Z,16.57
2023-04-25T07:09:31.383Z,16.63
2023-04-25T07:11:58.310Z,16.74
2023-04-25T07:14:25.479Z,16.86
2023-04-25T07:16:52.394Z,16.74
2023-04-25T07:19:19.373Z,17.01
2023-04-25T07:21:46.112Z,16.85
2023-04-25T07:24:12.913Z,17.46
2023-04-25T07:26:39.785Z,17.60
2023-04-25T07:29:06.650Z,17.81
2023-04-25T07:31:33.688Z,17.76
2023-04-25T07:34:02.023Z,17.90
2023-04-25T07:36:29.106Z,18.39
2023-04-25T07:38:56.371Z,18.53
2023-04-25T07:41:23.379Z,18.67
2023-04-25T07:43:50.206Z,18.67
2023-04-25T07:46:17.322Z,19.01
2023-04-25T07:48:44.458Z,19.20
2023-04-25T07:51:11.215Z,19.38
2023-04-25T07:53:38.848Z,19.46
2023-04-25T07:56:06.061Z,19.43
2023-04-25T07:58:33.436Z,19.08
2023-04-25T08:01:00.260Z,19.13
2023-04-25T08:03:27.453Z,19.09
2023-04-25T08:05:54.605Z,19.09
2023-04-25T08:08:21.412Z,19.22
2023-04-25T08:10:49.618Z,19.47
2023-04-25T08:13:16.583Z,19.73
2023-04-25T08:15:43.412Z,19.98
2023-04-25T08:18:10.383Z,20.22
2023-04-25T08:20:37.158Z,20.42
2023-04-25T08:23:03.905Z,20.54
2023-04-25T08:25:30.753Z,20.74
2023-04-25T08:27:58.259Z,20.75
2023-04-25T08:30:25.069Z,21.12
2023-04-25T08:32:52.415Z,21.07
2023-04-25T08:35:19.315Z,21.04
2023-04-25T08:37:46.428Z,21.39
2023-04-25T08:40:15.883Z,21.44
2023-04-25T08:42:43.133Z,21.52
2023-04-25T08:45:10.517Z,21.58
2023-04-25T08:47:37.542Z,21.45
2023-04-25T08:50:04.746Z,21.57
2023-04-25T08:52:34.101Z,21.57
2023-04-25T08:55:00.785Z,21.56
2023-04-25T08:57:27.619Z,21.55
2023-04-25T08:59:54.359Z,21.36
2023-04-25T09:02:22.144Z,21.39
2023-04-25T09:04:49.023Z,21.14
2023-04-25T09:07:19.673Z,21.03
2023-04-25T09:09:46.792Z,21.02
2023-04-25T09:12:13.538Z,21.15
2023-04-25T09:14:40.329Z,21.10
2023-04-25T09:17:09.296Z,21.06
2023-04-25T09:19:40.810Z,20.99
2023-04-25T09:22:08.778Z,21.05
2023-04-25T09:24:46.891Z,20.74
2023-04-25T09:27:24.229Z,21.06
2023-04-25T09:29:51.166Z,21.12
2023-04-25T09:32:19.807Z,21.16
2023-04-25T09:34:52.178Z,20.98
2023-04-25T09:37:25.450Z,21.16
2023-04-25T09:39:57.516Z,20.89
2023-04-25T09:42:27.052Z,21.19
2023-04-25T09:44:54.709Z,21.06
2023-04-25T09:47:23.303Z,21.13
2023-04-25T09:49:50.402Z,20.99
2023-04-25T09:52:26.331Z,21.13
2023-04-25T09:54:53.483Z,21.14
2023-04-25T09:57:25.069Z,20.73
2023-04-25T09:59:53.384Z,21.12
2023-04-25T10:02:22.047Z,21.09
2023-04-25T10:04:49.942Z,21.15
2023-04-25T10:07:17.012Z,21.15
2023-04-25T10:09:43.865Z,21.12
2023-04-25T10:12:10.688Z,21.22
2023-04-25T10:14:37.614Z,21.18
2023-04-25T10:17:04.430Z,21.22
2023-04-25T10:19:31.388Z,21.30
2023-04-25T10:22:10.239Z,21.42
2023-04-25T10:24:37.626Z,21.49
2023-04-25T10:27:04.566Z,21.47
2023-04-25T10:29:31.568Z,21.68
2023-04-25T10:32:00.726Z,22.12
2023-04-25T10:34:43.604Z,22.54
2023-04-25T10:37:11.484Z,23.32
2023-04-25T10:39:45.167Z,23.73
2023-04-25T10:42:12.007Z,24.38
2023-04-25T10:44:39.583Z,24.74
2023-04-25T10:47:08.049Z,25.31
2023-04-25T10:49:36.620Z,25.77
2023-04-25T10:52:19.250Z,26.23
2023-04-25T10:54:58.928Z,27.10
2023-04-25T10:57:34.685Z,27.65
2023-04-25T11:00:10.890Z,27.77
2023-04-25T11:02:53.368Z,27.85
2023-04-25T11:05:36.535Z,28.01
2023-04-25T11:08:12.237Z,28.23
2023-04-25T11:10:39.112Z,28.47
2023-04-25T11:13:06.279Z,28.63
2023-04-25T11:15:33.681Z,28.76
2023-04-25T11:18:00.894Z,28.75
2023-04-25T11:20:29.897Z,28.47
2023-04-25T11:22:59.170Z,27.96
2023-04-25T11:25:25.990Z,27.44
2023-04-25T11:27:53.224Z,27.06
2023-04-25T11:30:20.604Z,26.89
2023-04-25T11:32:47.856Z,26.94
2023-04-25T11:35:14.704Z,26.72
2023-04-25T11:37:42.147Z,26.72
2023-04-25T11:40:10.693Z,26.86
2023-04-25T11:42:43.166Z,26.97
2023-04-25T11:45:10.791Z,27.43
2023-04-25T11:47:38.046Z,27.77
2023-04-25T11:50:05.985Z,28.13
2023-04-25T11:52:46.066Z,28.43
2023-04-25T11:55:17.886Z,28.35
2023-04-25T11:57:45.680Z,28.20
2023-04-25T12:00:16.534Z,28.14
2023-04-25T12:02:46.259Z,28.25
2023-04-25T12:05:29.946Z,28.66
2023-04-25T12:08:21.126Z,28.42
2023-04-25T12:10:48.225Z,28.32
2023-04-25T12:13:24.672Z,28.04
2023-04-25T12:15:51.718Z,28.27
2023-04-25T12:18:22.617Z,28.94
2023-04-25T12:20:52.404Z,29.25
2023-04-25T12:23:19.402Z,30.07
2023-04-25T12:25:46.938Z,30.64
2023-04-25T12:28:21.604Z,31.14
2023-04-25T12:31:06.947Z,31.38
2023-04-25T12:33:35.045Z,31.86
2023-04-25T12:36:06.417Z,32.35
2023-04-25T12:38:39.385Z,32.97
2023-04-25T12:41:06.435Z,33.44
2023-04-25T12:43:33.280Z,33.91
2023-04-25T12:46:00.185Z,34.41
2023-04-25T12:48:28.324Z,34.53
2023-04-25T12:50:57.970Z,34.82
2023-04-25T12:53:27.378Z,35.00
2023-04-25T12:58:26.153Z,35.31
2023-04-25T13:00:52.918Z,35.07
2023-04-25T13:03:21.288Z,35.00
2023-04-25T13:05:48.282Z,34.18
2023-04-25T13:08:15.085Z,32.89
2023-04-25T13:10:42.231Z,31.64
2023-04-25T13:13:09.709Z,30.45
2023-04-25T13:15:36.508Z,29.40
2023-04-25T13:18:05.092Z,28.50
2023-04-25T13:20:32.185Z,27.67
2023-04-25T13:23:00.276Z,26.99
2023-04-25T13:25:27.810Z,26.29
2023-04-25T13:27:54.701Z,25.54
2023-04-25T13:30:22.056Z,25.14
2023-04-25T13:32:52.656Z,25.05
2023-04-25T13:35:19.642Z,24.49
2023-04-25T13:37:46.524Z,24.47
2023-04-25T13:40:13.361Z,24.18
2023-04-25T13:42:40.500Z,23.75
2023-04-25T13:45:08.391Z,23.75
2023-04-25T13:47:35.764Z,23.38
2023-04-25T13:50:04.586Z,23.49
2023-04-25T13:52:31.376Z,23.01
2023-04-25T13:54:58.337Z,23.05
2023-04-25T13:57:25.257Z,22.84
2023-04-25T13:59:52.274Z,22.99
2023-04-25T14:02:19.262Z,22.88
2023-04-25T14:04:46.261Z,22.62
2023-04-25T14:07:13.133Z,22.69
2023-04-25T14:09:39.888Z,22.60
2023-04-25T14:12:07.291Z,22.55
2023-04-25T14:14:34.137Z,22.48
2023-04-25T14:17:01.176Z,22.46
2023-04-25T14:19:28.909Z,22.43
2023-04-25T14:21:56.026Z,22.42
2023-04-25T14:24:22.931Z,22.42
2023-04-25T14:26:49.795Z,22.26
2023-04-25T14:29:16.517Z,22.33
2023-04-25T14:31:43.354Z,22.28
2023-04-25T14:34:10.312Z,22.05
2023-04-25T14:36:37.248Z,22.19
2023-04-25T14:39:06.160Z,22.12
2023-04-25T14:41:33.216Z,22.07
2023-04-25T14:44:00.068Z,21.99
2023-04-25T14:46:27.807Z,21.86
2023-04-25T14:48:57.082Z,21.83
2023-04-25T14:51:24.136Z,21.82
2023-04-25T14:53:52.262Z,21.77
2023-04-25T14:56:20.130Z,21.65
2023-04-25T14:58:47.353Z,21.65
2023-04-25T15:01:14.226Z,21.43
2023-04-25T15:03:44.485Z,21.62
2023-04-25T15:06:11.791Z,21.58
2023-04-25T15:08:38.560Z,21.53
2023-04-25T15:11:05.959Z,21.48
2023-04-25T15:13:33.115Z,21.45
2023-04-25T15:15:59.955Z,21.42
2023-04-25T15:18:26.853Z,21.39
2023-04-25T15:20:53.771Z,21.35
2023-04-25T15:23:20.933Z,21.29
2023-04-25T15:25:48.482Z,21.28
2023-04-25T15:28:17.077Z,21.24
2023-04-25T15:30:45.218Z,20.99
2023-04-25T15:33:12.230Z,21.19
2023-04-25T15:35:38.954Z,21.17
2023-04-25T15:38:06.629Z,21.10
2023-04-25T15:40:33.458Z,21.03
2023-04-25T15:43:01.590Z,21.05
2023-04-25T15:45:28.489Z,21.08
2023-04-25T15:47:57.063Z,21.05
2023-04-25T15:50:23.939Z,21.03
2023-04-25T15:52:51.038Z,20.99
2023-04-25T15:55:21.649Z,20.90
2023-04-25T15:57:49.680Z,20.71
2023-04-25T16:00:17.995Z,20.86
2023-04-25T16:02:45.855Z,20.83
2023-04-25T16:05:14.734Z,20.81
2023-04-25T16:07:42.323Z,20.80
2023-04-25T16:10:11.383Z,20.67
2023-04-25T16:12:39.195Z,20.79
2023-04-25T16:15:06.551Z,20.72
2023-04-25T16:17:33.868Z,20.71
2023-04-25T16:20:02.051Z,20.69
2023-04-25T16:22:29.186Z,20.57
2023-04-25T16:24:56.117Z,20.40
2023-04-25T16:27:22.852Z,20.65
2023-04-25T16:29:51.615Z,20.64
2023-04-25T16:32:18.591Z,20.63
2023-04-25T16:34:45.617Z,20.61
2023-04-25T16:37:12.458Z,20.58
2023-04-25T16:39:39.310Z,20.55
2023-04-25T16:42:06.355Z,20.26
2023-04-25T16:44:33.172Z,20.53
2023-04-25T16:46:59.999Z,20.49
2023-04-25T16:49:27.030Z,20.52
2023-04-25T16:51:53.859Z,20.40
2023-04-25T16:54:21.041Z,20.50
2023-04-25T16:56:47.758Z,20.50
2023-04-25T16:59:14.524Z,20.48
2023-04-25T17:01:41.549Z,20.48
2023-04-25T17:04:08.443Z,20.48
2023-04-25T17:06:35.361Z,20.49
2023-04-25T17:09:02.288Z,20.49
2023-04-25T17:11:29.097Z,20.43
2023-04-25T17:13:55.871Z,20.49
2023-04-25T17:16:26.139Z,20.49
2023-04-25T17:18:53.543Z,20.47
2023-04-25T17:21:20.444Z,20.38
2023-04-25T17:23:47.550Z,20.44
2023-04-25T17:26:14.782Z,20.26
2023-04-25T17:28:42.392Z,20.41
2023-04-25T17:31:09.917Z,20.38
2023-04-25T17:33:36.906Z,20.37
2023-04-25T17:36:04.256Z,20.33
2023-04-25T17:38:31.803Z,20.28
2023-04-25T17:40:59.020Z,20.13
2023-04-25T17:43:27.771Z,20.22
2023-04-25T17:45:54.937Z,20.18
2023-04-25T17:48:22.988Z,20.21
2023-04-25T17:50:49.824Z,20.01
2023-04-25T17:53:16.797Z,20.20
2023-04-25T17:55:44.359Z,20.17
2023-04-25T17:58:11.594Z,19.91
2023-04-25T18:00:38.862Z,20.13
2023-04-25T18:03:05.790Z,20.11
2023-04-25T18:05:33.128Z,20.13
2023-04-25T18:08:00.192Z,20.15
2023-04-25T18:10:27.207Z,19.87
2023-04-25T18:12:54.076Z,20.15
2023-04-25T18:15:22.221Z,20.13
2023-04-25T18:17:49.189Z,19.91
2023-04-25T18:20:16.785Z,20.01
2023-04-25T18:22:44.645Z,20.11
2023-04-25T18:25:11.622Z,19.54
2023-04-25T18:27:38.754Z,20.05
2023-04-25T18:30:06.887Z,19.83
2023-04-25T18:32:33.736Z,19.97
2023-04-25T18:35:00.629Z,19.95
2023-04-25T18:37:28.520Z,19.91
2023-04-25T18:39:55.257Z,19.82
2023-04-25T18:42:22.559Z,19.87
2023-04-25T18:44:49.440Z,19.83
2023-04-25T18:47:17.011Z,19.80
2023-04-25T18:49:43.919Z,19.55
2023-04-25T18:52:12.579Z,19.75
2023-04-25T18:54:39.543Z,19.73
2023-04-25T18:57:06.377Z,19.53
2023-04-25T18:59:33.767Z,19.39
2023-04-25T19:02:05.489Z,19.62
2023-04-25T19:04:32.838Z,19.40
2023-04-25T19:07:00.391Z,19.26
2023-04-25T19:09:27.334Z,19.42
2023-04-25T19:11:54.306Z,19.42
2023-04-25T19:14:21.211Z,19.28
2023-04-25T19:16:48.123Z,19.17
2023-04-25T19:19:15.006Z,19.06
2023-04-25T19:21:42.000Z,19.22
2023-04-25T19:24:08.985Z,19.15
2023-04-25T19:26:35.760Z,19.12
2023-04-25T19:29:10.354Z,19.04
2023-04-25T19:31:38.658Z,18.97
2023-04-25T19:34:06.034Z,18.75
2023-04-25T19:36:33.172Z,18.88
2023-04-25T19:39:04.026Z,18.87
2023-04-25T19:41:37.744Z,18.66
2023-04-25T19:44:06.206Z,18.79
2023-04-25T19:46:36.412Z,18.66
2023-04-25T19:49:06.108Z,18.74
2023-04-25T19:51:34.212Z,18.66
2023-04-25T19:54:00.974Z,18.58
2023-04-25T19:56:27.912Z,18.49
2023-04-25T19:58:54.986Z,18.45
2023-04-25T20:01:22.519Z,18.50
2023-04-25T20:03:52.179Z,18.43
2023-04-25T20:06:19.416Z,18.53
2023-04-25T20:08:47.441Z,18.23
2023-04-25T20:11:15.188Z,18.23
2023-04-25T20:13:42.142Z,18.46
2023-04-25T20:16:08.979Z,17.85
2023-04-25T20:18:35.979Z,18.40
2023-04-25T20:21:02.841Z,18.22
2023-04-25T20:23:29.624Z,18.19
2023-04-25T20:25:56.624Z,18.37
2023-04-25T20:28:23.545Z,18.37
2023-04-25T20:30:50.778Z,18.33
2023-04-25T20:33:17.645Z,18.30
2023-04-25T20:35:44.497Z,18.22
2023-04-25T20:38:12.749Z,18.24
2023-04-25T20:40:39.611Z,18.20
2023-04-25T20:43:06.381Z,18.17
2023-04-25T20:45:34.675Z,18.17
2023-04-25T20:48:02.846Z,18.11
2023-04-25T20:50:29.807Z,18.12
2023-04-25T20:52:57.379Z,18.09
2023-04-25T20:55:24.399Z,18.07
2023-04-25T20:57:51.291Z,18.06
2023-04-25T21:00:20.772Z,18.07
2023-04-25T21:02:47.797Z,18.07
2023-04-25T21:05:14.957Z,18.04
2023-04-25T21:07:42.017Z,18.07
2023-04-25T21:10:09.547Z,18.07
2023-04-25T21:12:36.668Z,18.05
2023-04-25T21:15:04.345Z,18.03
2023-04-25T21:17:31.124Z,17.70
2023-04-25T21:19:57.941Z,17.64
2023-04-25T21:22:24.712Z,17.94
2023-04-25T21:24:54.059Z,17.92
2023-04-25T21:27:21.090Z,17.89
2023-04-25T21:29:47.844Z,17.88
2023-04-25T21:32:17.645Z,17.85
2023-04-25T21:34:44.569Z,17.83
2023-04-25T21:37:11.312Z,17.81
2023-04-25T21:39:38.136Z,17.80
2023-04-25T21:42:09.106Z,17.72
2023-04-25T21:44:36.466Z,17.69
2023-04-25T21:47:04.845Z,17.74
2023-04-25T21:49:33.017Z,17.72
2023-04-25T21:52:00.378Z,17.65
2023-04-25T21:54:27.458Z,17.68
2023-04-25T21:56:54.510Z,17.66
2023-04-25T21:59:24.098Z,17.63
2023-04-25T22:01:50.978Z,17.45
2023-04-25T22:04:18.405Z,17.60
2023-04-25T22:06:46.746Z,17.60
2023-04-25T22:09:13.597Z,17.36
2023-04-25T22:11:41.211Z,17.18
2023-04-25T22:14:08.030Z,17.46
2023-04-25T22:16:35.528Z,17.56
2023-04-25T22:19:02.490Z,17.53
2023-04-25T22:21:29.274Z,17.53
2023-04-25T22:23:56.879Z,17.50
2023-04-25T22:26:25.577Z,17.48
2023-04-25T22:28:52.610Z,17.45
2023-04-25T22:31:20.991Z,17.44
2023-04-25T22:33:48.727Z,17.44
2023-04-25T22:36:15.761Z,17.32
2023-04-25T22:38:43.527Z,17.42
2023-04-25T22:41:10.381Z,17.43
2023-04-25T22:43:40.184Z,17.41
2023-04-25T22:46:18.052Z,17.40
2023-04-25T22:48:45.798Z,17.29
2023-04-25T22:51:12.755Z,17.41
2023-04-25T22:53:40.307Z,17.41
2023-04-25T22:56:10.260Z,17.40
2023-04-25T22:58:44.125Z,17.20
2023-04-25T23:01:11.828Z,17.39
2023-04-25T23:03:40.457Z,17.15
2023-04-25T23:06:08.096Z,17.40
2023-04-25T23:08:35.363Z,17.39
2023-04-25T23:11:08.683Z,17.39
2023-04-25T23:13:37.205Z,17.38
2023-04-25T23:16:11.186Z,17.30
2023-04-25T23:18:39.393Z,17.35
2023-04-25T23:21:10.170Z,17.15
2023-04-25T23:23:37.248Z,17.14
2023-04-25T23:26:10.751Z,17.09
2023-04-25T23:28:41.998Z,17.20
2023-04-25T23:31:09.753Z,17.32
2023-04-25T23:33:36.710Z,17.24
2023-04-25T23:36:03.931Z,17.30
2023-04-25T23:38:30.965Z,17.16
2023-04-25T23:40:57.716Z,17.22
2023-04-25T23:43:24.720Z,16.94
2023-04-25T23:45:51.620Z,17.01
2023-04-25T23:48:18.401Z,17.18
2023-04-25T23:50:45.351Z,16.94
2023-04-25T23:53:12.151Z,17.21
2023-04-25T23:55:38.990Z,17.19
2023-04-25T23:58:05.892Z,17.02
